Time;durP1;ratioP1;P1;durP2;ratioP2;P2;SDS_P1;SDS_P2;PMS_P1;PMS_P2;Temp;Humidity;BMP_temperature;BMP_pressure;BME280_temperature;BME280_humidity;BME280_pressure;Samples;Min_cycle;Max_cycle;Signal;HPM_P1;HPM_P2
2023/11/06 00:00:29;;;;;;;5.17;1.27;;;11.10;99.90;;;;;;4964980;28;20019;-78
2023/11/06 00:03:12;;;;;;;8.27;0.90;;;11.10;99.90;;;;;;4978925;28;20031;-77
2023/11/06 00:05:38;;;;;;;5.03;0.90;;;11.10;99.90;;;;;;4961429;28;20095;-77
2023/11/06 00:08:05;;;;;;;5.30;0.80;;;11.10;99.90;;;;;;4960464;28;20015;-80
2023/11/06 00:10:33;;;;;;;3.73;0.93;;;11.10;99.90;;;;;;4963354;28;20022;-77
2023/11/06 00:13:00;;;;;;;3.63;0.97;;;11.10;99.90;;;;;;4976678;28;20008;-79
2023/11/06 00:15:28;;;;;;;4.60;0.70;;;11.00;99.90;;;;;;4964873;28;20043;-79
2023/11/06 00:17:55;;;;;;;6.37;1.17;;;11.10;99.90;;;;;;4966032;28;20011;-78
2023/11/06 00:20:27;;;;;;;5.73;1.13;;;11.00;99.90;;;;;;4954375;28;20040;-77
2023/11/06 00:22:53;;;;;;;6.80;1.33;;;10.90;99.90;;;;;;4951844;28;20040;-78
2023/11/06 00:25:19;;;;;;;6.57;0.93;;;10.90;99.90;;;;;;4950646;28;20026;-80
2023/11/06 00:27:47;;;;;;;6.40;1.17;;;11.00;99.90;;;;;;4951610;28;20032;-78
2023/11/06 00:30:13;;;;;;;7.80;1.07;;;10.90;99.90;;;;;;4954385;28;20012;-79
2023/11/06 00:32:39;;;;;;;4.00;0.97;;;10.90;99.90;;;;;;4950505;28;20012;-79
2023/11/06 00:35:07;;;;;;;10.20;1.23;;;10.80;99.90;;;;;;4953731;28;20044;-78
2023/11/06 00:37:33;;;;;;;3.67;0.60;;;10.70;99.90;;;;;;4950964;28;20105;-79
2023/11/06 00:40:03;;;;;;;5.13;1.10;;;10.70;99.90;;;;;;4952534;28;20096;-79
2023/11/06 00:42:29;;;;;;;6.00;1.13;;;10.70;99.90;;;;;;4954276;28;20083;-79
2023/11/06 00:45:02;;;;;;;9.23;1.47;;;10.70;99.90;;;;;;4954930;28;20043;-80
2023/11/06 00:47:31;;;;;;;8.50;0.83;;;10.60;99.90;;;;;;4950545;28;20039;-79
2023/11/06 00:49:57;;;;;;;2.27;1.10;;;10.70;99.90;;;;;;4947839;28;20088;-78
2023/11/06 00:52:23;;;;;;;3.73;0.80;;;10.60;99.90;;;;;;4951270;28;20013;-78
2023/11/06 00:54:58;;;;;;;5.67;1.17;;;10.70;99.90;;;;;;4954572;28;20071;-78
2023/11/06 00:57:24;;;;;;;6.43;0.70;;;10.60;99.90;;;;;;4949945;29;20023;-79
2023/11/06 00:59:52;;;;;;;6.50;1.30;;;10.60;99.90;;;;;;4951541;28;20111;-78
2023/11/06 01:02:20;;;;;;;10.13;1.13;;;10.50;99.90;;;;;;4950688;28;20057;-79
2023/11/06 01:04:46;;;;;;;5.53;1.40;;;10.60;99.90;;;;;;4950547;28;20122;-79
2023/11/06 01:07:16;;;;;;;3.43;1.00;;;10.60;99.90;;;;;;4950090;28;20016;-79
2023/11/06 01:09:47;;;;;;;4.47;1.30;;;10.70;99.90;;;;;;4954679;28;20032;-78
2023/11/06 01:12:12;;;;;;;10.00;1.10;;;10.60;99.90;;;;;;4956710;28;20079;-79
2023/11/06 01:14:38;;;;;;;5.10;1.00;;;10.50;99.90;;;;;;4958255;28;20055;-79
2023/11/06 01:17:09;;;;;;;6.70;1.10;;;10.50;99.90;;;;;;4958132;28;20040;-78
2023/11/06 01:19:54;;;;;;;5.03;1.50;;;10.50;99.90;;;;;;5166075;27;20146;-79
2023/11/06 01:22:22;;;;;;;5.77;2.03;;;10.50;99.90;;;;;;5131986;28;20048;-80
2023/11/06 01:24:48;;;;;;;4.10;1.13;;;10.60;99.90;;;;;;5125119;28;20035;-77
2023/11/06 01:27:23;;;;;;;6.13;0.97;;;10.60;99.90;;;;;;5165660;27;20024;-79
2023/11/06 01:29:52;;;;;;;6.93;1.07;;;10.60;99.90;;;;;;5148038;27;20039;-78
2023/11/06 01:32:20;;;;;;;5.87;0.77;;;10.70;99.90;;;;;;5125195;28;20071;-80
2023/11/06 01:34:46;;;;;;;3.60;0.70;;;10.70;99.90;;;;;;5131631;28;20024;-78
2023/11/06 01:37:15;;;;;;;2.80;0.50;;;10.60;99.90;;;;;;5126251;28;20016;-79
2023/11/06 01:39:48;;;;;;;3.23;0.53;;;10.80;99.90;;;;;;5126104;28;20035;-79
2023/11/06 01:42:24;;;;;;;5.23;0.90;;;10.80;99.90;;;;;;5125380;28;20020;-79
2023/11/06 01:44:54;;;;;;;7.47;1.13;;;10.80;99.90;;;;;;5121662;28;20016;-78
2023/11/06 01:47:24;;;;;;;3.13;0.73;;;10.90;99.90;;;;;;5130790;27;20034;-78
2023/11/06 01:49:50;;;;;;;4.30;0.97;;;10.90;99.90;;;;;;5128418;28;20016;-78
2023/11/06 01:52:23;;;;;;;4.27;1.27;;;10.80;99.90;;;;;;5129656;28;20044;-80
2023/11/06 01:54:51;;;;;;;4.73;0.93;;;10.80;99.90;;;;;;5125561;28;20051;-79
2023/11/06 01:57:19;;;;;;;7.27;0.93;;;10.70;99.90;;;;;;5122796;28;20032;-79
2023/11/06 01:59:47;;;;;;;5.83;1.63;;;10.60;99.90;;;;;;5164117;27;20032;-78
2023/11/06 02:02:17;;;;;;;5.43;0.83;;;10.50;99.90;;;;;;5164586;27;20024;-79
2023/11/06 02:04:49;;;;;;;3.63;0.80;;;10.50;99.90;;;;;;5129988;28;20099;-80
2023/11/06 02:07:15;;;;;;;11.77;1.13;;;10.60;99.90;;;;;;5146949;27;20043;-78
2023/11/06 02:09:44;;;;;;;5.67;1.53;;;10.50;99.90;;;;;;5147091;27;20023;-79
2023/11/06 02:12:10;;;;;;;2.53;0.90;;;10.60;99.90;;;;;;5126272;28;20059;-78
2023/11/06 02:14:55;;;;;;;4.83;0.70;;;10.60;99.90;;;;;;5124959;28;20012;-78
2023/11/06 02:17:21;;;;;;;7.33;1.07;;;10.70;99.90;;;;;;5123406;28;20084;-81
2023/11/06 02:19:52;;;;;;;4.33;0.70;;;10.70;99.90;;;;;;5120009;28;20036;-79
2023/11/06 02:22:22;;;;;;;6.03;0.93;;;10.70;99.90;;;;;;5126849;28;20042;-80
2023/11/06 02:24:49;;;;;;;4.43;0.90;;;10.70;99.90;;;;;;5126037;28;20020;-78
2023/11/06 02:27:18;;;;;;;6.57;1.03;;;10.80;99.90;;;;;;5125227;28;20036;-77
2023/11/06 02:29:47;;;;;;;8.13;1.53;;;10.80;99.90;;;;;;5120886;28;20057;-80
2023/11/06 02:32:13;;;;;;;4.13;1.10;;;10.70;99.90;;;;;;5132420;28;20012;-79
2023/11/06 02:34:41;;;;;;;2.80;0.60;;;10.70;99.90;;;;;;5115384;28;20024;-78
2023/11/06 02:37:15;;;;;;;4.47;1.07;;;10.80;99.90;;;;;;5112144;28;20027;-80
2023/11/06 02:39:50;;;;;;;4.20;0.80;;;10.80;99.90;;;;;;5150030;27;20070;-79
2023/11/06 02:42:20;;;;;;;4.90;0.93;;;10.70;99.90;;;;;;5114072;28;20012;-78
2023/11/06 02:44:49;;;;;;;4.60;0.77;;;10.70;99.90;;;;;;5115039;28;20032;-80
2023/11/06 02:47:16;;;;;;;4.10;0.67;;;10.80;99.90;;;;;;5105931;28;20020;-79
2023/11/06 02:49:42;;;;;;;6.13;1.27;;;10.60;99.90;;;;;;5114489;28;20115;-78
2023/11/06 02:52:18;;;;;;;;;;;;;;;;;;;;;
2023/11/06 02:54:46;;;;;;;3.40;0.90;;;10.60;99.90;;;;;;5116911;28;20036;-79
2023/11/06 02:57:12;;;;;;;7.30;0.90;;;10.60;99.90;;;;;;5149091;27;20027;-78
2023/11/06 02:59:37;;;;;;;6.03;1.00;;;10.70;99.90;;;;;;5115445;28;20032;-76
2023/11/06 03:02:03;;;;;;;4.13;0.97;;;10.70;99.90;;;;;;5115111;28;20044;-81
2023/11/06 03:04:29;;;;;;;6.80;0.80;;;10.50;99.90;;;;;;5112064;28;20016;-79
2023/11/06 03:06:54;;;;;;;3.67;1.07;;;10.50;99.90;;;;;;5114170;28;20114;-79
2023/11/06 03:09:23;;;;;;;4.53;0.83;;;10.50;99.90;;;;;;5111910;28;20035;-80
2023/11/06 03:11:51;;;;;;;7.03;1.40;;;10.30;99.90;;;;;;5114949;28;20020;-78
2023/11/06 03:14:19;;;;;;;5.07;0.80;;;10.40;99.90;;;;;;5149126;27;20016;-79
2023/11/06 03:16:45;;;;;;;6.13;0.90;;;10.20;99.90;;;;;;5110073;28;20032;-78
2023/11/06 03:19:13;;;;;;;3.13;1.00;;;10.40;99.90;;;;;;5148123;27;20043;-79
2023/11/06 03:21:39;;;;;;;2.63;0.40;;;10.30;99.90;;;;;;5115693;28;20016;-77
2023/11/06 03:24:07;;;;;;;5.03;0.77;;;10.30;99.90;;;;;;5149151;27;20028;-78
2023/11/06 03:26:32;;;;;;;3.33;0.90;;;10.30;99.90;;;;;;5114410;28;20027;-79
2023/11/06 03:29:08;;;;;;;6.63;1.00;;;10.30;99.90;;;;;;5130536;28;20016;-79
2023/11/06 03:31:42;;;;;;;2.40;0.60;;;10.40;99.90;;;;;;5131027;28;20028;-80
2023/11/06 03:34:08;;;;;;;5.30;0.70;;;10.40;99.90;;;;;;5108992;28;20445;-78
2023/11/06 03:36:45;;;;;;;2.73;1.03;;;10.30;99.90;;;;;;5113039;28;20032;-79
2023/11/06 03:39:12;;;;;;;6.90;1.10;;;10.40;99.90;;;;;;5147007;27;20074;-79
2023/11/06 03:41:50;;;;;;;1.90;0.70;;;10.40;99.90;;;;;;5130181;28;20028;-79
2023/11/06 03:44:20;;;;;;;3.97;0.80;;;10.30;99.90;;;;;;5103839;28;20050;-79
2023/11/06 03:46:48;;;;;;;6.73;2.03;;;10.20;99.90;;;;;;5113546;28;20024;-79
2023/11/06 03:49:14;;;;;;;5.77;1.27;;;10.30;99.90;;;;;;5111499;28;20065;-78
2023/11/06 03:51:42;;;;;;;5.33;0.70;;;10.30;99.90;;;;;;5148366;27;20020;-78
2023/11/06 03:54:10;;;;;;;1.60;0.53;;;10.30;99.90;;;;;;5131112;28;20042;-79
2023/11/06 03:56:35;;;;;;;3.73;1.00;;;10.30;99.90;;;;;;5110672;28;20028;-79
2023/11/06 03:59:07;;;;;;;2.67;0.77;;;10.40;99.90;;;;;;5113131;28;20046;-78
2023/11/06 04:01:40;;;;;;;5.70;1.10;;;10.40;99.90;;;;;;5126769;28;20091;-80
2023/11/06 04:04:11;;;;;;;4.23;1.27;;;10.40;99.90;;;;;;5111792;28;20285;-79
2023/11/06 04:06:42;;;;;;;4.73;0.90;;;10.20;99.90;;;;;;5114125;28;20044;-78
2023/11/06 04:09:08;;;;;;;4.63;0.70;;;10.30;99.90;;;;;;5112050;28;20020;-80
2023/11/06 04:11:33;;;;;;;6.50;1.50;;;10.40;99.90;;;;;;5129566;28;20032;-80
2023/11/06 04:14:01;;;;;;;5.20;1.50;;;10.40;99.90;;;;;;5130866;28;20035;-78
2023/11/06 04:16:30;;;;;;;9.43;1.13;;;10.30;99.90;;;;;;5112082;28;20028;-78
2023/11/06 04:18:59;;;;;;;9.83;2.30;;;10.30;99.90;;;;;;5110124;28;20040;-79
2023/11/06 04:21:27;;;;;;;4.53;0.70;;;10.40;99.90;;;;;;5102780;28;20031;-80
2023/11/06 04:23:53;;;;;;;16.10;2.03;;;10.40;99.90;;;;;;5113180;28;20027;-78
2023/11/06 04:26:18;;;;;;;5.67;1.33;;;10.30;99.90;;;;;;5147991;27;20043;-78
2023/11/06 04:28:54;;;;;;;9.87;1.90;;;10.30;99.90;;;;;;5113163;28;20016;-78
2023/11/06 04:31:19;;;;;;;6.83;1.27;;;10.40;99.90;;;;;;5102404;28;20047;-79
2023/11/06 04:33:47;;;;;;;4.97;1.00;;;10.30;99.90;;;;;;5113256;28;20016;-80
2023/11/06 04:36:18;;;;;;;8.57;1.47;;;10.30;99.90;;;;;;5110096;28;20076;-81
2023/11/06 04:39:01;;;;;;;14.83;2.07;;;10.40;99.90;;;;;;5112699;28;20070;-80
2023/11/06 04:41:27;;;;;;;7.17;1.50;;;10.30;99.90;;;;;;5112653;28;20012;-81
2023/11/06 04:43:55;;;;;;;10.83;1.80;;;10.40;99.90;;;;;;5117757;28;20033;-81
2023/11/06 04:46:21;;;;;;;6.27;1.37;;;10.40;99.90;;;;;;5108907;28;20020;-80
2023/11/06 04:48:47;;;;;;;9.27;1.47;;;10.60;99.90;;;;;;5117563;28;20104;-79
2023/11/06 04:51:16;;;;;;;7.30;1.27;;;10.50;99.90;;;;;;5118052;28;20027;-83
2023/11/06 04:53:43;;;;;;;10.43;2.70;;;10.50;99.90;;;;;;5116679;28;20019;-78
2023/11/06 04:56:19;;;;;;;11.13;1.23;;;10.50;99.90;;;;;;5118088;28;20011;-79
2023/11/06 04:58:54;;;;;;;13.93;1.67;;;10.40;99.90;;;;;;5117303;28;20040;-80
2023/11/06 05:01:21;;;;;;;5.17;1.47;;;10.50;99.90;;;;;;5117275;28;20012;-82
2023/11/06 05:03:54;;;;;;;7.43;1.60;;;10.40;99.90;;;;;;5117398;28;20012;-80
2023/11/06 05:06:25;;;;;;;14.97;2.30;;;10.50;99.90;;;;;;5117304;28;20046;-83
2023/11/06 05:08:51;;;;;;;7.40;2.97;;;10.50;99.90;;;;;;5117204;28;20026;-81
2023/11/06 05:11:17;;;;;;;12.00;2.37;;;10.50;99.90;;;;;;5113347;28;20012;-81
2023/11/06 05:13:43;;;;;;;7.10;1.60;;;10.50;99.90;;;;;;5106616;28;20043;-84
2023/11/06 05:16:14;;;;;;;10.73;1.80;;;10.50;99.90;;;;;;5116979;28;20008;-80
2023/11/06 05:18:42;;;;;;;8.20;2.03;;;10.50;99.90;;;;;;5117402;28;20039;-81
2023/11/06 05:21:28;;;;;;;12.30;1.93;;;10.40;99.90;;;;;;5116947;28;21000;-81
2023/11/06 05:23:57;;;;;;;14.10;1.70;;;10.60;99.90;;;;;;5117667;28;20021;-80
2023/11/06 05:26:29;;;;;;;14.57;2.30;;;10.50;99.90;;;;;;5113765;28;20012;-81
2023/11/06 05:28:55;;;;;;;13.33;2.93;;;10.60;99.90;;;;;;5117130;28;20059;-82
2023/11/06 05:31:31;;;;;;;9.40;2.10;;;10.50;99.90;;;;;;5117042;28;20028;-82
2023/11/06 05:33:59;;;;;;;11.00;2.17;;;10.50;99.90;;;;;;5149200;28;20024;-83
2023/11/06 05:36:25;;;;;;;9.57;1.40;;;10.50;99.90;;;;;;5110018;28;20015;-80
2023/11/06 05:39:01;;;;;;;12.60;2.20;;;10.50;99.90;;;;;;5117203;28;20029;-79
2023/11/06 05:41:27;;;;;;;12.03;1.70;;;10.40;99.90;;;;;;5117215;28;20009;-79
2023/11/06 05:43:58;;;;;;;8.83;1.60;;;10.60;99.90;;;;;;5117325;28;20028;-80
2023/11/06 05:46:26;;;;;;;13.43;2.00;;;10.50;99.90;;;;;;5114415;28;20032;-77
2023/11/06 05:48:55;;;;;;;9.10;1.43;;;10.60;99.90;;;;;;5117032;28;20019;-80
2023/11/06 05:51:25;;;;;;;10.77;1.77;;;10.50;99.90;;;;;;5112804;28;20077;-81
2023/11/06 05:53:53;;;;;;;10.27;2.37;;;10.50;99.90;;;;;;5172153;22;20097;-79
2023/11/06 05:56:24;;;;;;;10.10;2.27;;;10.50;99.90;;;;;;5037035;28;20025;-79
2023/11/06 05:58:52;;;;;;;13.37;3.37;;;10.50;99.90;;;;;;5052243;28;20089;-79
2023/11/06 06:01:18;;;;;;;18.50;2.33;;;10.40;99.90;;;;;;5061453;28;20009;-79
2023/11/06 06:03:43;;;;;;;17.37;3.03;;;10.40;99.90;;;;;;5036870;28;20022;-79
2023/11/06 06:06:14;;;;;;;16.90;3.93;;;10.30;99.90;;;;;;5188183;22;20124;-79
2023/11/06 06:08:48;;;;;;;12.70;2.83;;;10.20;99.90;;;;;;5077189;28;20017;-79
2023/11/06 06:11:16;;;;;;;22.20;3.87;;;10.20;99.90;;;;;;5053215;28;20013;-79
2023/11/06 06:13:49;;;;;;;15.20;3.13;;;10.20;99.90;;;;;;5073650;28;20122;-79
2023/11/06 06:16:23;;;;;;;13.90;2.57;;;10.10;99.90;;;;;;5059435;28;20013;-78
2023/11/06 06:18:53;;;;;;;9.47;2.17;;;10.00;99.90;;;;;;5055182;28;20029;-79
2023/11/06 06:21:24;;;;;;;16.50;2.53;;;10.00;99.90;;;;;;5055322;28;20085;-78
2023/11/06 06:23:52;;;;;;;9.07;2.43;;;9.90;99.90;;;;;;5070588;28;20047;-79
2023/11/06 06:26:21;;;;;;;10.17;1.73;;;9.90;99.90;;;;;;5054408;28;20013;-78
2023/11/06 06:28:49;;;;;;;11.13;2.10;;;9.80;99.90;;;;;;5055201;28;20021;-78
2023/11/06 06:31:26;;;;;;;15.17;2.37;;;9.90;99.90;;;;;;5048422;28;20028;-79
2023/11/06 06:33:52;;;;;;;13.60;2.97;;;9.80;99.90;;;;;;5069158;28;20033;-78
2023/11/06 06:36:20;;;;;;;19.00;3.13;;;9.80;99.90;;;;;;5055491;28;20022;-79
2023/11/06 06:38:48;;;;;;;13.10;2.40;;;9.90;99.90;;;;;;5052690;28;20156;-78
2023/11/06 06:41:16;;;;;;;14.37;2.47;;;9.80;99.90;;;;;;5068220;28;20020;-78
2023/11/06 06:43:42;;;;;;;13.67;2.77;;;9.80;99.90;;;;;;5053947;28;20056;-78
2023/11/06 06:46:12;;;;;;;10.13;1.83;;;9.70;99.90;;;;;;5068190;28;20014;-79
2023/11/06 06:48:38;;;;;;;16.40;2.60;;;9.70;99.90;;;;;;5054756;28;20060;-78
2023/11/06 06:51:06;;;;;;;11.27;1.87;;;9.60;99.90;;;;;;5054121;28;20018;-78
2023/11/06 06:53:34;;;;;;;12.77;2.13;;;9.70;99.90;;;;;;5053298;28;20017;-77
2023/11/06 06:56:00;;;;;;;16.23;1.90;;;9.70;99.90;;;;;;5067690;28;20024;-78
2023/11/06 06:58:28;;;;;;;8.17;1.63;;;9.50;99.90;;;;;;5050345;28;20049;-78
2023/11/06 07:00:56;;;;;;;12.27;2.67;;;9.60;99.90;;;;;;5049896;28;20013;-78
2023/11/06 07:03:22;;;;;;;15.63;3.70;;;9.50;99.90;;;;;;5064430;28;20018;-79
2023/11/06 07:05:47;;;;;;;18.23;2.90;;;9.50;99.90;;;;;;5067611;28;20097;-78
2023/11/06 07:08:13;;;;;;;10.80;3.23;;;9.40;99.90;;;;;;5051263;28;20097;-78
2023/11/06 07:10:39;;;;;;;11.13;2.93;;;9.40;99.90;;;;;;5049026;28;20041;-78
2023/11/06 07:13:10;;;;;;;15.03;4.17;;;9.40;99.90;;;;;;5066373;28;20243;-79
2023/11/06 07:15:38;;;;;;;16.53;3.70;;;9.40;99.90;;;;;;5052003;28;20033;-78
2023/11/06 07:18:06;;;;;;;17.13;2.93;;;9.30;99.90;;;;;;5060635;28;20026;-78
2023/11/06 07:20:32;;;;;;;9.33;3.73;;;9.30;99.90;;;;;;5066832;28;20068;-78
2023/11/06 07:23:00;;;;;;;11.30;2.87;;;9.20;99.90;;;;;;5050973;28;20017;-80
2023/11/06 07:25:28;;;;;;;10.47;2.33;;;9.30;99.90;;;;;;5066216;28;20037;-79
2023/11/06 07:27:56;;;;;;;8.37;1.73;;;9.30;99.90;;;;;;5065688;28;20028;-78
2023/11/06 07:30:23;;;;;;;9.33;2.50;;;9.30;99.90;;;;;;5066235;28;20022;-78
2023/11/06 07:32:59;;;;;;;;;;;;;;;;;;;;;
2023/11/06 07:35:27;;;;;;;10.27;1.90;;;9.30;99.90;;;;;;5048989;28;20041;-79
2023/11/06 07:37:55;;;;;;;10.17;2.13;;;9.40;99.90;;;;;;5049474;28;20026;-79
2023/11/06 07:40:25;;;;;;;12.03;2.60;;;9.40;99.90;;;;;;5050175;28;20060;-78
2023/11/06 07:42:57;;;;;;;10.80;2.30;;;9.40;99.90;;;;;;5066351;28;20017;-78
2023/11/06 07:45:25;;;;;;;14.20;1.63;;;9.40;99.90;;;;;;5066171;28;20018;-78
2023/11/06 07:47:55;;;;;;;13.00;2.10;;;9.40;99.90;;;;;;5048140;28;20036;-79
2023/11/06 07:50:44;;;;;;;10.23;1.50;;;9.50;99.90;;;;;;5065574;28;20013;-79
2023/11/06 07:53:12;;;;;;;17.10;2.80;;;9.40;99.90;;;;;;5050210;28;20028;-78
2023/11/06 07:55:38;;;;;;;12.57;2.47;;;9.50;99.90;;;;;;5049563;28;20033;-78
2023/11/06 07:58:04;;;;;;;9.03;2.23;;;9.70;99.90;;;;;;5049864;28;20067;-77
2023/11/06 08:00:29;;;;;;;19.33;1.80;;;9.60;99.90;;;;;;5067691;28;20017;-79
2023/11/06 08:02:57;;;;;;;8.47;1.67;;;9.70;99.90;;;;;;5053189;28;20063;-79
2023/11/06 08:05:23;;;;;;;7.90;1.80;;;9.70;99.90;;;;;;5062343;28;20052;-77
2023/11/06 08:07:53;;;;;;;7.83;1.53;;;9.80;99.90;;;;;;5065826;28;20033;-76
2023/11/06 08:10:19;;;;;;;10.70;1.97;;;9.80;99.90;;;;;;5066579;28;20022;-76
2023/11/06 08:12:47;;;;;;;6.53;1.93;;;9.80;99.90;;;;;;5064976;28;20050;-77
2023/11/06 08:15:16;;;;;;;11.83;2.10;;;9.80;99.90;;;;;;5062040;28;20014;-78
2023/11/06 08:17:41;;;;;;;9.77;2.67;;;10.00;99.90;;;;;;5050643;28;20021;-78
2023/11/06 08:20:10;;;;;;;12.07;2.40;;;9.90;99.90;;;;;;5066515;28;20045;-79
2023/11/06 08:22:36;;;;;;;10.53;2.20;;;10.10;99.90;;;;;;5062266;28;20282;-77
2023/11/06 08:25:02;;;;;;;10.87;1.90;;;10.10;99.90;;;;;;5065309;28;20024;-78
2023/11/06 08:27:30;;;;;;;7.50;2.30;;;10.20;99.90;;;;;;5065868;28;20031;-78
2023/11/06 08:30:04;;;;;;;9.30;2.40;;;10.30;99.90;;;;;;5049848;28;20033;-79
2023/11/06 08:32:32;;;;;;;8.10;2.03;;;10.30;99.90;;;;;;5048425;28;20105;-78
2023/11/06 08:34:57;;;;;;;8.13;1.60;;;10.30;99.90;;;;;;5049462;28;20013;-78
2023/11/06 08:37:30;;;;;;;8.80;1.60;;;10.40;99.90;;;;;;5062592;28;20106;-79
2023/11/06 08:40:00;;;;;;;5.80;1.60;;;10.40;99.90;;;;;;5049456;28;20037;-78
2023/11/06 08:42:26;;;;;;;6.97;1.60;;;10.50;99.90;;;;;;5064449;28;20037;-78
2023/11/06 08:44:57;;;;;;;7.60;1.50;;;10.50;99.90;;;;;;5052036;28;20025;-78
2023/11/06 08:47:25;;;;;;;7.60;1.60;;;10.60;99.90;;;;;;5116785;22;20028;-77
2023/11/06 08:49:50;;;;;;;6.93;1.73;;;10.70;99.90;;;;;;5129596;22;20040;-78
2023/11/06 08:52:16;;;;;;;9.67;1.80;;;10.70;99.90;;;;;;5059236;28;20078;-78
2023/11/06 08:54:45;;;;;;;9.67;1.83;;;10.70;99.90;;;;;;5057881;28;20028;-76
2023/11/06 08:57:14;;;;;;;8.17;1.87;;;10.70;99.90;;;;;;5058240;28;20013;-78
2023/11/06 08:59:45;;;;;;;8.93;1.57;;;10.80;99.90;;;;;;5055257;28;20045;-78
2023/11/06 09:02:11;;;;;;;8.37;1.37;;;10.80;99.90;;;;;;5058023;28;20021;-78
2023/11/06 09:04:40;;;;;;;9.93;1.40;;;10.80;99.90;;;;;;5059793;28;20021;-80
2023/11/06 09:07:11;;;;;;;11.30;1.60;;;10.90;99.90;;;;;;5056052;28;20071;-78
2023/11/06 09:09:39;;;;;;;8.43;1.50;;;10.90;99.90;;;;;;5059338;28;20021;-78
2023/11/06 09:12:06;;;;;;;10.43;2.03;;;11.00;99.90;;;;;;5058789;28;20017;-79
2023/11/06 09:14:32;;;;;;;11.23;2.20;;;11.10;99.90;;;;;;5061000;28;20018;-79
2023/11/06 09:16:57;;;;;;;12.00;2.57;;;11.10;99.90;;;;;;5061787;28;20037;-78
2023/11/06 09:19:24;;;;;;;9.67;1.03;;;11.20;99.90;;;;;;5058468;28;20033;-78
2023/11/06 09:21:51;;;;;;;6.17;1.20;;;11.30;99.90;;;;;;5059372;28;20033;-79
2023/11/06 09:24:20;;;;;;;16.57;1.83;;;11.40;99.90;;;;;;5055750;28;20038;-79
2023/11/06 09:26:48;;;;;;;8.73;2.20;;;11.40;99.90;;;;;;5057350;28;20033;-79
2023/11/06 09:29:21;;;;;;;11.50;1.77;;;11.50;99.90;;;;;;5057250;28;20080;-78
2023/11/06 09:31:47;;;;;;;8.17;1.83;;;11.50;99.90;;;;;;5062552;28;20081;-78
2023/11/06 09:34:15;;;;;;;4.60;1.33;;;11.50;99.90;;;;;;5057781;28;20076;-78
2023/11/06 09:36:41;;;;;;;11.63;1.57;;;11.60;99.90;;;;;;5059033;28;20028;-78
2023/11/06 09:39:09;;;;;;;11.13;1.60;;;11.60;99.90;;;;;;5055382;28;20119;-78
2023/11/06 09:41:38;;;;;;;10.13;1.53;;;11.70;99.90;;;;;;5062448;28;20075;-78
2023/11/06 09:44:12;;;;;;;10.50;1.93;;;11.70;99.90;;;;;;5059376;28;20211;-80
2023/11/06 09:46:47;;;;;;;4.73;2.10;;;11.80;99.90;;;;;;5063486;28;20014;-77
2023/11/06 09:49:16;;;;;;;7.60;1.90;;;11.70;99.90;;;;;;5057836;28;20017;-78
2023/11/06 09:51:51;;;;;;;7.87;1.70;;;11.80;99.90;;;;;;5063111;28;20098;-79
2023/11/06 09:54:20;;;;;;;15.90;1.93;;;11.70;99.90;;;;;;5058571;28;20051;-78
2023/11/06 09:56:46;;;;;;;12.83;1.40;;;11.70;99.90;;;;;;5056730;28;20033;-78
2023/11/06 09:59:12;;;;;;;15.67;2.40;;;11.80;99.90;;;;;;5325847;22;20063;-78
2023/11/06 10:01:48;;;;;;;6.67;1.30;;;11.90;99.90;;;;;;5042596;28;20092;-78
2023/11/06 10:04:15;;;;;;;8.30;1.30;;;12.00;99.90;;;;;;5058742;28;20020;-78
2023/11/06 10:06:42;;;;;;;12.27;2.30;;;12.00;99.90;;;;;;5040548;28;20084;-79
2023/11/06 10:09:24;;;;;;;17.30;2.37;;;12.30;99.90;;;;;;5040174;28;20024;-78
2023/11/06 10:11:58;;;;;;;9.48;1.67;;;12.40;99.90;;;;;;5042152;28;20037;-78
2023/11/06 10:14:46;;;;;;;9.93;1.63;;;12.60;99.90;;;;;;5040113;28;20036;-79
2023/11/06 10:17:16;;;;;;;8.00;1.60;;;12.70;99.90;;;;;;5040580;28;20220;-78
2023/11/06 10:19:57;;;;;;;13.40;1.73;;;12.80;99.90;;;;;;5051439;28;20143;-79
2023/11/06 10:22:26;;;;;;;8.43;1.50;;;12.80;99.90;;;;;;5033101;28;20028;-79
2023/11/06 10:24:53;;;;;;;8.93;1.33;;;12.60;99.90;;;;;;5038132;28;20030;-78
2023/11/06 10:27:33;;;;;;;11.60;1.80;;;12.80;99.90;;;;;;5039404;28;20025;-78
2023/11/06 10:30:10;;;;;;;10.40;1.83;;;12.70;99.90;;;;;;5039276;28;20025;-78
2023/11/06 10:32:38;;;;;;;10.87;1.70;;;12.60;99.90;;;;;;5051724;28;20025;-78
2023/11/06 10:35:12;;;;;;;12.23;1.90;;;12.80;99.90;;;;;;5039899;28;20021;-78
2023/11/06 10:37:42;;;;;;;8.60;1.70;;;12.70;99.90;;;;;;5057728;28;20037;-77
2023/11/06 10:40:12;;;;;;;7.57;1.40;;;12.60;99.90;;;;;;5040744;28;20040;-78
2023/11/06 10:42:40;;;;;;;13.97;2.07;;;12.70;99.90;;;;;;5042141;28;20009;-78
2023/11/06 10:45:11;;;;;;;13.43;2.23;;;12.60;99.90;;;;;;5060168;28;20022;-77
2023/11/06 10:47:42;;;;;;;9.47;2.23;;;12.70;99.90;;;;;;5060463;28;20005;-78
2023/11/06 10:50:11;;;;;;;7.43;1.53;;;12.70;99.90;;;;;;5042543;28;20470;-78
2023/11/06 10:52:41;;;;;;;9.67;1.37;;;12.60;99.90;;;;;;5042512;28;20060;-80
2023/11/06 10:55:08;;;;;;;11.67;2.67;;;12.60;99.90;;;;;;5042694;28;20041;-78
2023/11/06 10:57:37;;;;;;;17.30;2.60;;;12.60;99.90;;;;;;5042554;28;20010;-78
2023/11/06 11:00:11;;;;;;;7.20;1.67;;;12.50;99.90;;;;;;5059410;28;20029;-78
2023/11/06 11:02:44;;;;;;;7.10;2.13;;;12.60;99.90;;;;;;5042971;28;20013;-80
2023/11/06 11:05:12;;;;;;;8.70;1.80;;;12.60;99.90;;;;;;5036802;28;20021;-77
2023/11/06 11:07:40;;;;;;;10.13;1.60;;;12.70;99.90;;;;;;5042969;28;20020;-78
2023/11/06 11:10:11;;;;;;;9.50;1.63;;;12.60;99.90;;;;;;5043346;28;20029;-78
2023/11/06 11:12:37;;;;;;;9.87;2.03;;;12.70;99.90;;;;;;5043435;28;20009;-78
2023/11/06 11:15:12;;;;;;;8.30;1.50;;;12.80;99.90;;;;;;5060413;28;20013;-78
2023/11/06 11:17:38;;;;;;;8.63;1.30;;;12.80;99.90;;;;;;5044637;28;20015;-78
2023/11/06 11:20:09;;;;;;;7.97;1.53;;;12.90;99.90;;;;;;5042966;28;20024;-78
2023/11/06 11:23:06;;;;;;;7.77;1.90;;;12.80;99.90;;;;;;5052963;28;20021;-78
2023/11/06 11:26:09;;;;;;;5.17;1.70;;;12.80;99.90;;;;;;5033977;28;20064;-78
2023/11/06 11:29:09;;;;;;;6.38;1.67;;;13.10;99.90;;;;;;5041547;28;20012;-79
2023/11/06 11:31:47;;;;;;;4.83;1.20;;;13.00;99.90;;;;;;5056747;28;20010;-78
2023/11/06 11:34:27;;;;;;;3.90;1.07;;;13.20;99.90;;;;;;5042836;28;20033;-78
2023/11/06 11:36:55;;;;;;;2.60;0.80;;;13.20;99.90;;;;;;5042585;28;20027;-77
2023/11/06 11:39:24;;;;;;;4.40;1.37;;;13.40;99.90;;;;;;5042807;28;20025;-77
2023/11/06 11:42:06;;;;;;;7.05;0.77;;;13.50;99.90;;;;;;5059721;28;20022;-80
2023/11/06 11:44:32;;;;;;;4.47;0.80;;;13.40;99.90;;;;;;5042640;28;20005;-78
2023/11/06 11:47:00;;;;;;;4.50;0.80;;;13.50;99.90;;;;;;5042180;28;20006;-78
2023/11/06 11:49:46;;;;;;;7.85;0.82;;;13.60;99.90;;;;;;5042708;28;20021;-78
2023/11/06 11:52:24;;;;;;;4.88;0.88;;;13.60;99.90;;;;;;5037912;28;20006;-78
2023/11/06 11:54:51;;;;;;;4.30;0.73;;;13.70;99.90;;;;;;5042734;28;20045;-78
2023/11/06 11:57:17;;;;;;;3.72;0.70;;;13.80;99.90;;;;;;5041393;28;20087;-81
2023/11/06 11:59:49;;;;;;;5.00;0.55;;;13.90;99.90;;;;;;5041657;28;20036;-79
2023/11/06 12:02:34;;;;;;;1.92;0.50;;;13.90;99.90;;;;;;5038746;28;20021;-77
2023/11/06 12:05:15;;;;;;;2.92;0.80;;;13.90;99.90;;;;;;5042275;28;20073;-78
2023/11/06 12:07:44;;;;;;;3.10;0.52;;;13.90;99.90;;;;;;5041953;28;20036;-79
2023/11/06 12:10:16;;;;;;;1.85;0.40;;;13.90;99.90;;;;;;5042215;28;20021;-79
2023/11/06 12:12:41;;;;;;;1.23;0.47;;;13.90;99.90;;;;;;5041678;28;20029;-78
2023/11/06 12:15:10;;;;;;;4.75;0.70;;;14.00;99.90;;;;;;5042031;28;20077;-78
2023/11/06 12:17:37;;;;;;;1.60;0.40;;;14.00;99.90;;;;;;5041866;28;20034;-78
2023/11/06 12:20:14;;;;;;;2.67;0.35;;;14.10;99.90;;;;;;5036631;28;20082;-78
2023/11/06 12:22:49;;;;;;;7.57;1.52;;;14.10;99.90;;;;;;5036044;28;20018;-78
2023/11/06 12:25:26;;;;;;;1.30;0.45;;;14.00;99.90;;;;;;5034942;28;20052;-78
2023/11/06 12:28:01;;;;;;;3.30;0.85;;;13.80;99.90;;;;;;5053628;28;20045;-78
2023/11/06 12:30:27;;;;;;;3.08;0.73;;;13.80;99.90;;;;;;5029436;28;20150;-78
2023/11/06 12:32:52;;;;;;;4.00;0.45;;;13.70;99.90;;;;;;5046639;28;20026;-77
2023/11/06 12:35:21;;;;;;;1.77;0.30;;;13.70;99.90;;;;;;5036673;28;20044;-78
2023/11/06 12:37:48;;;;;;;5.25;0.93;;;13.50;99.90;;;;;;5035421;28;20018;-78
2023/11/06 12:40:27;;;;;;;1.17;0.30;;;13.60;99.90;;;;;;5035250;28;20021;-78
2023/11/06 12:42:54;;;;;;;0.75;0.30;;;13.50;99.90;;;;;;5036250;28;20013;-79
2023/11/06 12:45:46;;;;;;;3.65;0.60;;;13.70;99.90;;;;;;5052920;28;20032;-78
2023/11/06 12:48:28;;;;;;;1.42;0.40;;;13.80;99.90;;;;;;5034386;28;20017;-79
2023/11/06 12:51:11;;;;;;;1.27;0.20;;;13.80;99.90;;;;;;5034626;28;20021;-79
2023/11/06 12:53:47;;;;;;;0.73;0.15;;;13.90;99.90;;;;;;5029494;28;20149;-78
2023/11/06 12:56:17;;;;;;;1.13;0.30;;;13.90;99.90;;;;;;5051643;28;20026;-78
2023/11/06 12:58:43;;;;;;;1.00;0.38;;;14.00;99.90;;;;;;5046492;28;20048;-78
2023/11/06 13:01:20;;;;;;;6.78;0.50;;;14.00;99.90;;;;;;5051630;28;20128;-79